Nearby Idaho METAR Reports

Sorted by Distance from Emmett Weather Station - Emmett, Idaho

 

KEUL - Caldwell, Idaho, USA
Distance from station: SSW 19mi, 30km
Updated: Mon, 15-Jul-2024 2:56am MDT
Clear
Clear
 Wind from WNW
Wind: WNW 5 mph, 7 km/h
Temperature: 75°F, 24°C
Dew Point: 54°F, 12°C
Humidity: 47%
Barometer: 30.01 inHg, 1016.3 hPa
Clouds: Clear
Visibility: 10 miles, 16 km
2024/07/15 08:56 KEUL 150856Z AUTO 29004KT 10SM CLR 24/12 A3001 RMK AO2 SLP134 T02440117 50002
KMAN - Nampa, Idaho, USA
Distance from station: S 19mi, 31km
Updated: Mon, 15-Jul-2024 2:55am MDT
Few Clouds
Few Clouds
 Wind from SW
Wind: SW 5 mph, 7 km/h
Temperature: 75°F, 24°C
Dew Point: 57°F, 14°C
Humidity: 54%
Barometer: 30.01 inHg, 1016.3 hPa
Clouds: Few Clouds
Visibility: 10 miles, 16 km
Cloud details: Few Clouds 5000 ft
Few Clouds 6000 ft
Few Clouds 11000 ft
2024/07/15 08:55 KMAN 150855Z AUTO 23004KT 10SM FEW050 FEW060 FEW110 24/14 A3001 RMK A01
 
KBOI - Boise, Idaho, USA
Distance from station: SSE 23mi, 38km
Updated: Mon, 15-Jul-2024 2:53am MDT
Clear
Clear
 Wind from WNW
Wind: WNW 5 mph, 7 km/h
Temperature: 81°F, 27°C
Dew Point: 48°F, 9°C
Humidity: 32%
Barometer: 30.02 inHg, 1016.6 hPa
Clouds: Clear
Visibility: 10 miles, 16 km
2024/07/15 08:53 KBOI 150853Z 30004KT 10SM CLR 27/09 A3002 RMK AO2 SLP129 T02670089 58000
KONO - Ontario, Oregon, USA
Distance from station: WNW 30mi, 48km
Updated: Mon, 15-Jul-2024 2:53am MDT
Clear
Clear
 Wind from varies
Wind: varies 3 mph, 6 km/h
Temperature: 77°F, 25°C
Dew Point: 50°F, 10°C
Humidity: 39%
Barometer: 30.01 inHg, 1016.3 hPa
Clouds: Clear
Visibility: 10 miles, 16 km
2024/07/15 08:53 KONO 150853Z AUTO VRB03KT 10SM CLR 25/10 A3001 RMK AO2 SLP138 T02500100 51006
 
KMUO - Mountain Home, Idaho, USA
Distance from station: SSE 65mi, 104km
Updated: Mon, 15-Jul-2024 2:55am MDT
Smoke, Mostly cloudy
Smoke, Mostly cloudy
 Wind from calm
Wind: Calm
Temperature: 72°F, 22°C
Dew Point: 48°F, 9°C
Humidity: 44%
Barometer: 30.00 inHg, 1015.9 hPa
Summary: Smoke
Clouds: Mostly cloudy
Visibility: 6 miles, 10 km
Cloud details: Mostly cloudy 14000 ft
2024/07/15 08:55 KMUO 150855Z 00000KT 6SM FU BKN140 22/09 A3000 RMK AO2A SLP120 T02180090 58002 $
KMYL - Mccall, Idaho, USA
Distance from station: NNE 74mi, 119km
Updated: Mon, 15-Jul-2024 2:51am MDT
Clear
Clear
 Wind from calm
Wind: Calm
Temperature: 54°F, 12°C
Dew Point: 46°F, 8°C
Humidity: 77%
Barometer: 30.19 inHg, 1022.4 hPa
Clouds: Clear
Visibility: 10 miles, 16 km
2024/07/15 08:51 KMYL 150851Z AUTO 00000KT 10SM CLR 12/08 A3019 RMK AO2 SLP183 T01220083 58000 $
 
KSNT - Stanley, Idaho, USA
Distance from station: ENE 79mi, 127km
Updated: Mon, 15-Jul-2024 2:51am MDT

 Wind from calm
Wind: Calm
Temperature: 57°F, 14°C
Dew Point: 45°F, 7°C
Humidity: 63%
Barometer: 30.30 inHg, 1026.1 hPa
2024/07/15 08:51 KSNT 150851Z AUTO 00000KT 14/07 A3030 RMK AO1 SLP145 T01440067 58002
KBKE - Baker, Oregon, USA
Distance from station: NW 96mi, 154km
Updated: Mon, 15-Jul-2024 2:53am MDT
Clear
Clear
 Wind from SSW
Wind: SSW 3 mph, 6 km/h
Temperature: 63°F, 17°C
Dew Point: 46°F, 8°C
Humidity: 56%
Barometer: 30.10 inHg, 1019.3 hPa
Clouds: Clear
Visibility: 10 miles, 16 km
2024/07/15 08:53 KBKE 150853Z AUTO 21003KT 10SM CLR 17/08 A3010 RMK AO2 SLP156 T01720078 50005 $
 
KJSY - Joseph, Oregon, USA
Distance from station: NNW 111mi, 179km
Updated: Mon, 15-Jul-2024 2:55am MDT
Clear
Clear
 Wind from S
Wind: S 3 mph, 6 km/h
Temperature: 59°F, 15°C
Dew Point: 39°F, 4°C
Humidity: 48%
Barometer: 30.14 inHg, 1020.7 hPa
Clouds: Clear
Visibility: 10 miles, 16 km
2024/07/15 08:55 KJSY 150855Z AUTO 19003KT 10SM CLR 15/04 A3014 RMK AO2 T01460042
KSUN - Hailey/Friedman, Idaho, USA
Distance from station: ESE 112mi, 180km
Updated: Mon, 15-Jul-2024 2:55am MDT
Clear
Clear
 Wind from NW
Wind: NW 7 mph, 11 km/h
Temperature: 64°F, 18°C
Dew Point: 43°F, 6°C
Humidity: 46%
Barometer: 30.22 inHg, 1023.4 hPa
Clouds: Clear
Visibility: 10 miles, 16 km
2024/07/15 08:55 KSUN 150855Z AUTO 31006KT 10SM CLR 18/06 A3022 RMK AO2
 
KREO - Rome, Oregon, USA
Distance from station: SW 113mi, 182km
Updated: Mon, 15-Jul-2024 2:52am MDT

 Wind from S
Wind: S 8 mph, 13 km/h
Temperature: 63°F, 17°C
Dew Point: 45°F, 7°C
Humidity: 52%
Barometer: 30.15 inHg, 1021 hPa
2024/07/15 08:52 KREO 150852Z AUTO 18007KT 17/07 A3015 RMK AO1 SLP167 T01670072 58001
KLLJ - Challis, Idaho, USA
Distance from station: ENE 120mi, 193km
Updated: Mon, 15-Jul-2024 2:55am MDT
Few Clouds
Few Clouds
 Wind from calm
Wind: Calm
Temperature: 66°F, 19°C
Dew Point: 45°F, 7°C
Humidity: 46%
Barometer: 30.18 inHg, 1022 hPa
Clouds: Few Clouds
Visibility: 10 miles, 16 km
Cloud details: Few Clouds 12000 ft
2024/07/15 08:55 KLLJ 150855Z AUTO 00000KT 10SM FEW120 19/07 A3018 RMK AO2 SLP142 T01890072 50001
 
KLGD - La Grande, Oregon, USA
Distance from station: NW 123mi, 198km
Updated: Mon, 15-Jul-2024 2:56am MDT
Clear
Clear
 Wind from NNW
Wind: NNW 3 mph, 6 km/h
Temperature: 66°F, 19°C
Dew Point: 37°F, 3°C
Humidity: 35%
Barometer: 30.07 inHg, 1018.3 hPa
Clouds: Clear
Visibility: 10 miles, 16 km
2024/07/15 08:56 KLGD 150856Z AUTO 33003KT 10SM CLR 19/03 A3007 RMK AO2 SLP157 T01940028 51008 $
KBNO - Burns, Oregon, USA
Distance from station: W 126mi, 202km
Updated: Mon, 15-Jul-2024 2:53am MDT
Clear
Clear
 Wind from WNW
Wind: WNW 6 mph, 9 km/h
Temperature: 57°F, 14°C
Dew Point: 45°F, 7°C
Humidity: 63%
Barometer: 30.15 inHg, 1021 hPa
Clouds: Clear
Visibility: 10 miles, 16 km
2024/07/15 08:53 KBNO 150853Z AUTO 30005KT 10SM CLR 14/07 A3015 RMK AO2 SLP172 T01390067 50001
 
KJER - Jerome County, Idaho, USA
Distance from station: SE 128mi, 207km
Updated: Mon, 15-Jul-2024 2:53am MDT
Clear
Clear
 Wind from SSW
Wind: SSW 8 mph, 13 km/h
Temperature: 70°F, 21°C
Dew Point: 50°F, 10°C
Humidity: 50%
Barometer: 30.11 inHg, 1019.6 hPa
Clouds: Clear
Visibility: 10 miles, 16 km
2024/07/15 08:53 KJER 150853Z AUTO 20007KT 10SM CLR 21/10 A3011 RMK AO2 SLP144 T02110100 55008
KGCD - John Day State, Oregon, USA
Distance from station: WNW 129mi, 208km
Updated: Mon, 15-Jul-2024 2:55am MDT
Clear
Clear
 Wind from WSW
Wind: WSW 6 mph, 9 km/h
Temperature: 66°F, 19°C
Dew Point: 36°F, 2°C
Humidity: 32%
Barometer: 30.14 inHg, 1020.7 hPa
Clouds: Clear
Visibility: 10 miles, 16 km
2024/07/15 08:55 KGCD 150855Z AUTO 24005KT 10SM CLR 19/02 A3014 RMK AO2 T01890022
 
KTWF - Twin Falls, Idaho, USA
Distance from station: SE 138mi, 222km
Updated: Mon, 15-Jul-2024 2:53am MDT
Clear
Clear
 Wind from SW
Wind: SW 14 mph, 22 km/h
Temperature: 73°F, 23°C
Dew Point: 46°F, 8°C
Humidity: 38%
Barometer: 30.11 inHg, 1019.6 hPa
Clouds: Clear
Visibility: 10 miles, 16 km
2024/07/15 08:53 KTWF 150853Z AUTO 22012KT 10SM CLR 23/08 A3011 RMK AO2 SLP129 T02330083 56006
KGIC - Grangeville, Idaho, USA
Distance from station: N 144mi, 232km
Updated: Mon, 15-Jul-2024 2:55am MDT
Clear
Clear
 Wind from calm
Wind: Calm
Temperature: 63°F, 17°C
Dew Point: 36°F, 2°C
Humidity: 37%
Barometer: 30.05 inHg, 1017.6 hPa
Clouds: Clear
Visibility: 10 miles, 16 km
2024/07/15 08:55 KGIC 150855Z AUTO 00000KT 10SM CLR 17/02 A3005 RMK AO1
 
KMEH - Meacham, Oregon, USA
Distance from station: NW 149mi, 240km
Updated: Mon, 15-Jul-2024 12:56am MDT
NOT Current
Clear
Clear
 Wind from calm
Wind: Calm
Temperature: 55°F, 13°C
Dew Point: 43°F, 6°C
Humidity: 63%
Barometer: 30.14 inHg, 1020.7 hPa
Clouds: Clear
Visibility: 10 miles, 16 km
2024/07/15 06:56 KMEH 150656Z AUTO 00000KT 10SM CLR 13/06 A3014 RMK AO2 SLP178 T01330061
KSMN - Salmon/Lemhi, Idaho, USA
Distance from station: NE 154mi, 248km
Updated: Mon, 15-Jul-2024 2:56am MDT
Clear
Clear
 Wind from calm
Wind: Calm
Temperature: 66°F, 19°C
Dew Point: 46°F, 8°C
Humidity: 49%
Barometer: 30.10 inHg, 1019.3 hPa
Clouds: Clear
Visibility: 10 miles, 16 km
2024/07/15 08:56 KSMN 150856Z AUTO 00000KT 10SM CLR 19/08 A3010 RMK AO2 SLP151 T01940078 51008
 
KBYI - Burley, Idaho, USA
Distance from station: ESE 163mi, 262km
Updated: Mon, 15-Jul-2024 2:53am MDT
Clear
Clear
 Wind from WSW
Wind: WSW 5 mph, 7 km/h
Temperature: 68°F, 20°C
Dew Point: 55°F, 13°C
Humidity: 64%
Barometer: 30.12 inHg, 1020 hPa
Clouds: Clear
Visibility: 10 miles, 16 km
2024/07/15 08:53 KBYI 150853Z AUTO 24004KT 10SM CLR 20/13 A3012 RMK AO2 SLP148 T02000133 55005
KP69 - Lowell/Elk City, Idaho, USA
Distance from station: NNE 164mi, 263km
Updated: Mon, 15-Jul-2024 2:52am MDT

 Wind from calm
Wind: Calm
Temperature: 63°F, 17°C
Dew Point: 57°F, 14°C
Humidity: 83%
Barometer: 30.01 inHg, 1016.3 hPa
2024/07/15 08:52 KP69 150852Z AUTO 00000KT 17/14 A3001 RMK AO1 SLP136 T01720139 51015
 
KPDT - Pendleton, Oregon, USA
Distance from station: NW 172mi, 277km
Updated: Mon, 15-Jul-2024 2:53am MDT
Clear
Clear
 Wind from S
Wind: S 9 mph, 15 km/h
Temperature: 75°F, 24°C
Dew Point: 36°F, 2°C
Humidity: 24%
Barometer: 30.00 inHg, 1015.9 hPa
Clouds: Clear
Visibility: 10 miles, 16 km
2024/07/15 08:53 KPDT 150853Z AUTO 18008KT 10SM CLR 24/02 A3000 RMK AO2 SLP138 T02440022 51015
KLWS - Lewiston, Idaho, USA
Distance from station: N 175mi, 282km
Updated: Mon, 15-Jul-2024 2:56am MDT
Clear
Clear
 Wind from SSE
Wind: SSE 8 mph, 13 km/h
Temperature: 75°F, 24°C
Dew Point: 34°F, 1°C
Humidity: 22%
Barometer: 29.92 inHg, 1013.2 hPa
Clouds: Clear
Visibility: 10 miles, 16 km
2024/07/15 08:56 KLWS 150856Z AUTO 15007KT 10SM CLR 24/01 A2992 RMK AO2 SLP118 T02390006 51009 PNO $
 
KALW - Walla Walla, Washington, USA
Distance from station: NNW 178mi, 287km
Updated: Mon, 15-Jul-2024 2:53am MDT
Clear
Clear
 Wind from S
Wind: S 12 mph, 19 km/h
Temperature: 75°F, 24°C
Dew Point: 39°F, 4°C
Humidity: 27%
Barometer: 29.98 inHg, 1015.2 hPa
Clouds: Clear
Visibility: 10 miles, 16 km
2024/07/15 08:53 KALW 150853Z AUTO 17010KT 10SM CLR 24/04 A2998 RMK AO2 SLP140 T02440044 51016 $
KHRI - Hermiston, Oregon, USA
Distance from station: NW 194mi, 311km
Updated: Mon, 15-Jul-2024 2:53am MDT
Clear
Clear
 Wind from SSW
Wind: SSW 9 mph, 15 km/h
Temperature: 73°F, 23°C
Dew Point: 37°F, 3°C
Humidity: 27%
Barometer: 29.95 inHg, 1014.2 hPa
Clouds: Clear
Visibility: 10 miles, 16 km
2024/07/15 08:53 KHRI 150853Z AUTO 20008KT 10SM CLR 23/03 A2995 RMK AO2 SLP133 T02330028 51014
CoCoRaHS (Community Collaborative Rain, Hail and Snow Network) Station Number: ID-GM-5 Live Lightning Map - USA Boise Skywarn Spotter ID: DO21 AlertID Southwestern Weather Network
Northwestern Weather Network


National Sex Offender Public Website

National Sex Offender Public Website





(Click on the Flag Counter logo below for details in new browser tab)
Flag Counter